createdAt,value
2018-09-28T00:00:46.939Z,100564.17
2018-09-28T00:05:51.130Z,100567.34
2018-09-28T00:10:55.332Z,100567.62
2018-09-28T00:15:59.506Z,100559.70
2018-09-28T00:21:03.724Z,100559.55
2018-09-28T00:26:08.059Z,100549.98
2018-09-28T00:31:12.455Z,100547.10
2018-09-28T00:36:16.666Z,100545.35
2018-09-28T00:41:20.798Z,100535.91
2018-09-28T00:46:24.999Z,100519.23
2018-09-28T00:51:29.231Z,100532.81
2018-09-28T00:56:33.438Z,100535.05
2018-09-28T01:01:37.667Z,100521.95
2018-09-28T01:06:41.908Z,100525.64
2018-09-28T01:11:46.659Z,100513.52
2018-09-28T01:16:51.797Z,100503.38
2018-09-28T01:21:56.150Z,100510.74
2018-09-28T01:27:00.351Z,100504.05
2018-09-28T01:32:04.628Z,100509.70
2018-09-28T01:37:08.999Z,100512.28
2018-09-28T01:42:13.219Z,100506.73
2018-09-28T01:47:17.759Z,100502.25
2018-09-28T01:52:21.931Z,100498.92
2018-09-28T01:57:26.440Z,100494.73
2018-09-28T02:02:30.830Z,100491.61
2018-09-28T02:07:35.065Z,100497.61
2018-09-28T02:12:39.310Z,100495.77
2018-09-28T02:17:43.595Z,100496.16
2018-09-28T02:22:47.843Z,100501.05
2018-09-28T02:27:52.061Z,100505.36
2018-09-28T02:32:56.286Z,100512.08
2018-09-28T02:38:00.434Z,100512.47
2018-09-28T02:43:04.567Z,100515.03
2018-09-28T02:48:08.825Z,100515.37
2018-09-28T02:53:18.489Z,100514.91
2018-09-28T02:58:22.612Z,100523.52
2018-09-28T03:03:26.823Z,100521.69
2018-09-28T03:08:30.951Z,100513.67
2018-09-28T03:13:35.211Z,100521.98
2018-09-28T03:18:39.403Z,100518.95
2018-09-28T03:23:43.533Z,100517.92
2018-09-28T03:28:48.249Z,100521.08
2018-09-28T03:33:52.436Z,100522.09
2018-09-28T03:38:56.669Z,100514.91
2018-09-28T03:44:00.910Z,100521.02
2018-09-28T03:49:05.512Z,100515.22
2018-09-28T03:54:10.053Z,100509.92
2018-09-28T03:59:14.321Z,100514.48
2018-09-28T04:04:18.637Z,100520.90
2018-09-28T04:09:23.293Z,100525.16
2018-09-28T04:14:27.529Z,100524.09
2018-09-28T04:19:31.876Z,100520.38
2018-09-28T04:24:36.067Z,100523.12
2018-09-28T04:29:40.303Z,100533.78
2018-09-28T04:34:44.703Z,100537.16
2018-09-28T04:39:48.982Z,100543.87
2018-09-28T04:44:53.250Z,100540.56
2018-09-28T04:49:57.578Z,100549.41
2018-09-28T04:55:01.803Z,100550.09
2018-09-28T05:00:05.999Z,100553.41
2018-09-28T05:05:10.160Z,100550.02
2018-09-28T05:10:14.698Z,100555.42
2018-09-28T05:15:18.937Z,100563.67
2018-09-28T05:20:23.139Z,100578.97
2018-09-28T05:25:27.477Z,100581.14
2018-09-28T05:30:31.590Z,100576.85
2018-09-28T05:35:35.886Z,100577.86
2018-09-28T05:40:40.816Z,100582.70
2018-09-28T05:45:45.049Z,100584.30
2018-09-28T05:50:49.419Z,100583.72
2018-09-28T05:55:53.793Z,100586.16
2018-09-28T06:01:03.482Z,100605.63
2018-09-28T06:06:08.051Z,100606.87
2018-09-28T06:11:13.379Z,100614.78
2018-09-28T06:16:17.705Z,100608.50
2018-09-28T06:21:21.920Z,100618.75
2018-09-28T06:26:26.330Z,100622.10
2018-09-28T06:31:30.634Z,100632.64
2018-09-28T06:36:34.917Z,100636.64
2018-09-28T06:41:39.303Z,100641.30
2018-09-28T06:46:44.310Z,100651.68
2018-09-28T06:51:48.718Z,100651.88
2018-09-28T06:56:53.411Z,100663.75
2018-09-28T07:01:58.020Z,100670.16
2018-09-28T07:07:02.805Z,100682.17
2018-09-28T07:12:07.231Z,100687.19
2018-09-28T07:17:11.566Z,100689.33
2018-09-28T07:22:16.184Z,100695.45
2018-09-28T07:27:21.483Z,100698.02
2018-09-28T07:32:26.127Z,100708.13
2018-09-28T07:37:32.022Z,100719.16
2018-09-28T07:42:36.722Z,100722.94
2018-09-28T07:47:41.413Z,100729.09
2018-09-28T07:52:46.299Z,100734.66
2018-09-28T07:57:50.777Z,100740.92
2018-09-28T08:02:55.123Z,100751.98
2018-09-28T08:08:00.237Z,100749.84
2018-09-28T08:13:05.295Z,100766.52
2018-09-28T08:18:09.705Z,100775.31
2018-09-28T08:23:14.129Z,100783.91
2018-09-28T08:28:18.474Z,100798.70
2018-09-28T08:33:22.835Z,100798.42
2018-09-28T08:38:27.195Z,100802.54
2018-09-28T08:43:31.918Z,100806.19
2018-09-28T08:48:36.303Z,100815.78
2018-09-28T08:53:40.545Z,100823.37
2018-09-28T08:58:45.054Z,100827.61
2018-09-28T09:03:49.490Z,100828.34
2018-09-28T09:08:53.876Z,100828.62
2018-09-28T09:13:58.444Z,100836.66
2018-09-28T09:19:03.036Z,100836.05
2018-09-28T09:24:07.689Z,100835.27
2018-09-28T09:29:12.217Z,100845.40
2018-09-28T09:34:16.594Z,100845.58
2018-09-28T09:39:20.774Z,100845.84
2018-09-28T09:44:25.342Z,100843.95
2018-09-28T09:49:29.911Z,100852.20
2018-09-28T09:54:34.258Z,100848.42
2018-09-28T09:59:39.044Z,100857.80
2018-09-28T10:04:45.164Z,100850.77
2018-09-28T10:09:49.667Z,100860.64
2018-09-28T10:14:54.375Z,100864.63
2018-09-28T10:19:58.617Z,100857.10
2018-09-28T10:25:03.159Z,100866.19
2018-09-28T10:30:07.698Z,100858.09
2018-09-28T10:35:12.906Z,100858.09
2018-09-28T10:40:17.266Z,100859.55
2018-09-28T10:45:21.568Z,100853.88
2018-09-28T10:50:26.053Z,100857.04
2018-09-28T10:55:30.371Z,100857.63
2018-09-28T11:00:34.769Z,100858.97
2018-09-28T11:05:39.222Z,100865.38
2018-09-28T11:10:43.832Z,100863.44
2018-09-28T11:15:48.006Z,100855.00
2018-09-28T11:20:53.400Z,100862.61
2018-09-28T11:25:59.185Z,100862.70
2018-09-28T11:31:03.552Z,100857.27
2018-09-28T11:36:08.439Z,100851.20
2018-09-28T11:41:13.393Z,100852.52
2018-09-28T11:46:18.014Z,100853.94
2018-09-28T11:51:22.296Z,100852.30
2018-09-28T11:56:26.787Z,100851.92
2018-09-28T12:01:31.239Z,100845.52
2018-09-28T12:06:36.897Z,100841.02
2018-09-28T12:11:41.634Z,100832.59
2018-09-28T12:16:46.023Z,100843.77
2018-09-28T12:21:50.396Z,100845.47
2018-09-28T12:26:54.634Z,100847.50
2018-09-28T12:31:59.229Z,100846.23
2018-09-28T12:37:09.769Z,100851.92
2018-09-28T12:42:14.043Z,100855.63
2018-09-28T12:47:18.288Z,100859.59
2018-09-28T12:52:22.786Z,100847.52
2018-09-28T12:57:27.405Z,100850.03
2018-09-28T13:02:31.810Z,100860.92
2018-09-28T13:07:36.294Z,100859.25
2018-09-28T13:12:40.802Z,100857.52
2018-09-28T13:17:45.178Z,100854.59
2018-09-28T13:22:49.598Z,100857.61
2018-09-28T13:27:53.962Z,100856.02
2018-09-28T13:32:58.364Z,100855.33
2018-09-28T13:38:02.902Z,100862.27
2018-09-28T13:43:07.542Z,100865.38
2018-09-28T13:48:13.981Z,100869.34
2018-09-28T13:53:18.462Z,100874.40
2018-09-28T13:58:23.790Z,100881.23
2018-09-28T14:03:29.297Z,100883.44
2018-09-28T14:08:34.021Z,100885.84
2018-09-28T14:13:38.826Z,100883.34
2018-09-28T14:18:43.631Z,100887.32
2018-09-28T14:23:48.706Z,100892.97
2018-09-28T14:28:53.300Z,100891.72
2018-09-28T14:33:57.798Z,100897.63
2018-09-28T14:39:02.227Z,100899.50
2018-09-28T14:44:07.176Z,100906.74
2018-09-28T14:49:12.387Z,100904.84
2018-09-28T14:54:17.552Z,100902.94
2018-09-28T15:00:51.416Z,100901.52
2018-09-28T15:05:56.126Z,100903.85
2018-09-28T15:11:01.297Z,100914.44
2018-09-28T15:16:05.969Z,100913.14
2018-09-28T15:21:10.378Z,100914.77
2018-09-28T15:26:15.536Z,100925.67
2018-09-28T15:32:49.486Z,100929.94
2018-09-28T15:37:54.024Z,100920.91
2018-09-28T15:42:58.308Z,100928.98
2018-09-28T15:48:02.563Z,100938.74
2018-09-28T15:53:06.934Z,100947.94
2018-09-28T15:58:11.126Z,100959.16
2018-09-28T16:03:16.475Z,100955.71
2018-09-28T16:08:20.730Z,100960.91
2018-09-28T16:13:25.044Z,100964.02
2018-09-28T16:18:29.528Z,100973.75
2018-09-28T16:23:34.652Z,100975.98
2018-09-28T16:28:39.039Z,100975.53
2018-09-28T16:33:43.559Z,100990.34
2018-09-28T16:38:50.653Z,100997.92
2018-09-28T16:43:55.014Z,101007.61
2018-09-28T16:49:05.063Z,101012.33
2018-09-28T16:54:09.380Z,101025.27
2018-09-28T16:59:13.898Z,101024.51
2018-09-28T17:04:18.378Z,101033.58
2018-09-28T17:09:22.895Z,101046.73
2018-09-28T17:14:27.120Z,101050.54
2018-09-28T17:19:31.672Z,101055.17
2018-09-28T17:24:36.280Z,101060.86
2018-09-28T17:29:40.514Z,101061.44
2018-09-28T17:34:45.662Z,101070.03
2018-09-28T17:45:05.701Z,101086.20
2018-09-28T17:50:10.104Z,101096.64
2018-09-28T17:55:15.014Z,101099.35
2018-09-28T18:00:19.654Z,101114.57
2018-09-28T18:05:24.259Z,101119.75
2018-09-28T18:10:29.192Z,101121.67
2018-09-28T18:15:33.657Z,101123.33
2018-09-28T18:20:42.933Z,101131.66
2018-09-28T18:25:47.479Z,101144.00
2018-09-28T18:30:52.129Z,101146.97
2018-09-28T18:35:56.643Z,101149.94
2018-09-28T18:41:06.630Z,101153.16
2018-09-28T18:46:10.822Z,101147.33
2018-09-28T18:51:15.308Z,101162.31
2018-09-28T18:56:19.647Z,101166.07
2018-09-28T19:01:23.861Z,101170.89
2018-09-28T19:06:28.217Z,101166.63
2018-09-28T19:11:32.740Z,101170.91
2018-09-28T19:16:37.309Z,101171.47
2018-09-28T19:21:42.712Z,101177.33
2018-09-28T19:26:47.085Z,101181.58
2018-09-28T19:31:51.737Z,101193.85
2018-09-28T19:36:56.155Z,101208.24
2018-09-28T19:42:00.507Z,101203.73
2018-09-28T19:47:04.833Z,101215.72
2018-09-28T19:52:09.321Z,101214.93
2018-09-28T19:57:14.710Z,101210.92
2018-09-28T20:02:19.665Z,101217.58
2018-09-28T20:07:24.121Z,101225.29
2018-09-28T20:12:28.537Z,101226.06
2018-09-28T20:17:33.256Z,101239.64
2018-09-28T20:22:38.052Z,101239.11
2018-09-28T20:27:42.984Z,101249.75
2018-09-28T20:32:47.539Z,101247.86
2018-09-28T20:37:52.124Z,101258.20
2018-09-28T20:42:56.968Z,101258.19
2018-09-28T20:48:01.567Z,101260.84
2018-09-28T20:53:06.256Z,101268.81
2018-09-28T20:58:10.744Z,101265.87
2018-09-28T21:03:15.160Z,101271.45
2018-09-28T21:08:19.553Z,101273.57
2018-09-28T21:13:23.864Z,101273.27
2018-09-28T21:18:28.180Z,101273.79
2018-09-28T21:23:32.550Z,101282.80
2018-09-28T21:28:36.848Z,101294.48
2018-09-28T21:33:41.135Z,101302.42
2018-09-28T21:38:45.493Z,101304.27
2018-09-28T21:43:49.722Z,101304.23
2018-09-28T21:48:53.994Z,101314.57
2018-09-28T21:53:58.272Z,101317.21
2018-09-28T21:59:02.623Z,101321.94
2018-09-28T22:04:06.903Z,101320.56
2018-09-28T22:09:11.301Z,101327.17
2018-09-28T22:14:15.746Z,101326.91
2018-09-28T22:19:19.981Z,101321.82
2018-09-28T22:24:24.996Z,101328.41
2018-09-28T22:29:30.163Z,101336.62
2018-09-28T22:34:36.120Z,101335.48
2018-09-28T22:39:40.673Z,101346.34
2018-09-28T22:44:44.825Z,101345.77
2018-09-28T22:49:54.195Z,101363.80
2018-09-28T22:54:58.515Z,101362.70
2018-09-28T23:00:03.057Z,101360.55
2018-09-28T23:05:07.788Z,101358.95
2018-09-28T23:10:12.047Z,101354.98
2018-09-28T23:15:16.373Z,101357.11
2018-09-28T23:20:20.655Z,101367.45
2018-09-28T23:25:24.930Z,101365.03
2018-09-28T23:30:29.155Z,101373.77
2018-09-28T23:35:33.295Z,101374.59
2018-09-28T23:40:37.543Z,101375.09
2018-09-28T23:45:41.837Z,101377.72
2018-09-28T23:50:46.373Z,101379.56
2018-09-28T23:55:50.467Z,101371.00
